SAAR

Islas Malvinas Airport

Rosario, Argentina
TAF SAAR 181100Z 1812/1912 02010KT CAVOK TX17/1818Z TN06/1812Z BECMG 1905/1007 05003KT 0800 BCFG NSC
Issued Valid From Valid To
Jun-18 @ 11:00 UTC
(2 hours ago)
Jun-18 @ 12:00 UTC
(an hour ago)
Jun-19 @ 12:00 UTC
(in 23 hours)
Jun-18 @ 12:00 to Jun-19 @ 05:00
TAF SAAR 181100Z 1812/1912 02010KT CAVOK TX17/1818Z TN06/1812Z
Wind Visibility Clouds
20° at 10 knots 10,000+ meters
  • No significant clouds
Becoming Jun-19 @ 05:00 to Jun-19 @ 12:00
BECMG 1905/1007 05003KT 0800 BCFG NSC
Wind Visibility Clouds Conditions
50° at 3 knots 805 meters
  • No significant clouds
  • Patches of
  • Fog
TAF SAAR 181100Z 1812/1912 02010KT CAVOK TX17/1818Z TN06/1812Z BECMG 1905/1007 05003KT 0800 BCFG NSC
Issued Jun-18 @ 11:00 UTC
(2 hours ago)
Valid From Jun-18 @ 12:00 UTC
(an hour ago)
Valid To Jun-19 @ 12:00 UTC
(in 23 hours)
Jun-18 @ 12:00 - Jun-19 @ 05:00
Wind Visibility
20° at 10 knots 10,000+ meters
Clouds
  • No significant clouds
Becoming Jun-19 @ 05:00 - Jun-19 @ 12:00
Wind Visibility
50° at 3 knots 805 meters
Clouds
  • No significant clouds
Conditions
  • Patches of
  • Fog